Time;durP1;ratioP1;P1;durP2;ratioP2;P2;SDS_P1;SDS_P2;PMS_P1;PMS_P2;Temp;Humidity;BMP_temperature;BMP_pressure;BME280_temperature;BME280_humidity;BME280_pressure;Samples;Min_cycle;Max_cycle;Signal;HPM_P1;HPM_P2
2021/06/04 00:01:12;;;;;;;11.20;6.20;;;10.60;91.80;;;;;;5032863;28;20049;-67
2021/06/04 00:03:38;;;;;;;7.10;6.25;;;10.50;91.80;;;;;;5032616;28;20034;-67
2021/06/04 00:06:06;;;;;;;10.07;6.63;;;10.50;92.30;;;;;;5032833;28;20030;-68
2021/06/04 00:08:32;;;;;;;10.40;6.07;;;10.40;92.10;;;;;;5032639;28;20075;-67
2021/06/04 00:11:08;;;;;;;9.25;5.80;;;10.40;91.40;;;;;;5032602;28;20038;-67
2021/06/04 00:13:47;;;;;;;6.97;5.70;;;10.40;91.20;;;;;;5031441;28;20029;-66
2021/06/04 00:16:20;;;;;;;8.52;5.05;;;10.40;91.00;;;;;;5032786;28;20109;-67
2021/06/04 00:18:48;;;;;;;6.88;5.38;;;10.30;91.20;;;;;;5032175;28;20414;-66
2021/06/04 00:21:28;;;;;;;7.68;5.82;;;10.30;92.20;;;;;;5032684;28;20021;-67
2021/06/04 00:23:55;;;;;;;9.50;5.13;;;10.20;92.80;;;;;;5032188;28;20033;-66
2021/06/04 00:26:21;;;;;;;7.78;5.65;;;10.20;93.70;;;;;;5032645;28;20029;-67
2021/06/04 00:28:48;;;;;;;10.10;7.03;;;10.10;94.30;;;;;;5035608;28;20021;-67
2021/06/04 00:31:14;;;;;;;9.55;4.80;;;10.00;95.00;;;;;;5036496;28;20038;-67
2021/06/04 00:33:42;;;;;;;7.03;5.05;;;10.00;94.40;;;;;;5036202;28;20072;-66
2021/06/04 00:36:08;;;;;;;15.65;6.10;;;10.00;93.60;;;;;;5036436;28;20360;-67
2021/06/04 00:38:35;;;;;;;7.07;4.75;;;10.00;93.00;;;;;;5036317;28;20029;-67
2021/06/04 00:41:05;;;;;;;7.43;5.05;;;9.90;93.70;;;;;;5036324;28;20055;-67
2021/06/04 00:43:30;;;;;;;9.23;5.70;;;9.80;94.30;;;;;;5035800;28;20033;-66
2021/06/04 00:45:57;;;;;;;6.40;5.25;;;9.90;93.50;;;;;;5036183;28;20025;-68
2021/06/04 00:48:25;;;;;;;7.03;5.32;;;9.80;93.10;;;;;;5034869;28;20148;-67
2021/06/04 00:51:10;;;;;;;7.03;5.40;;;9.80;94.10;;;;;;5036007;28;20135;-67
2021/06/04 00:53:36;;;;;;;10.02;5.22;;;9.80;94.70;;;;;;5035993;28;20064;-67
2021/06/04 00:56:03;;;;;;;6.80;4.43;;;9.70;94.90;;;;;;5034590;28;20025;-68
2021/06/04 00:58:33;;;;;;;8.02;5.55;;;9.70;96.20;;;;;;5035945;28;20025;-67
2021/06/04 01:01:00;;;;;;;7.18;5.07;;;9.70;96.20;;;;;;5036285;28;20036;-67
2021/06/04 01:03:29;;;;;;;7.28;5.80;;;9.60;96.00;;;;;;5034548;28;20029;-67
2021/06/04 01:06:05;;;;;;;6.10;4.85;;;9.50;96.70;;;;;;5034586;28;20091;-67
2021/06/04 01:09:14;;;;;;;7.22;5.72;;;9.50;97.60;;;;;;5035801;28;20494;-66
2021/06/04 01:11:58;;;;;;;10.15;6.88;;;9.50;97.30;;;;;;5012244;28;20116;-67
2021/06/04 01:14:28;;;;;;;7.35;4.82;;;9.40;96.20;;;;;;5014647;28;20414;-67
2021/06/04 01:17:04;;;;;;;6.97;5.10;;;9.40;95.30;;;;;;5015816;28;20069;-67
2021/06/04 01:19:51;;;;;;;6.82;5.22;;;9.40;95.40;;;;;;5015912;28;20068;-66
2021/06/04 01:22:51;;;;;;;7.45;4.97;;;9.40;96.40;;;;;;5015887;28;20037;-66
2021/06/04 01:25:35;;;;;;;5.85;5.07;;;9.30;96.80;;;;;;5031111;28;20068;-66
2021/06/04 01:28:07;;;;;;;7.70;5.40;;;9.20;97.40;;;;;;5035352;28;20034;-68
2021/06/04 01:30:43;;;;;;;7.13;4.75;;;9.30;97.20;;;;;;5034118;28;20029;-67
2021/06/04 01:33:16;;;;;;;9.05;4.95;;;9.30;97.70;;;;;;5033822;28;20457;-67
2021/06/04 01:35:44;;;;;;;;;;;9.20;96.80;;;;;;5035844;28;20455;-66
2021/06/04 01:38:13;;;;;;;6.43;4.85;;;9.20;97.30;;;;;;5032981;28;19912;-67
2021/06/04 01:40:43;;;;;;;5.78;4.80;;;9.20;97.50;;;;;;5035072;28;20056;-66
2021/06/04 01:43:15;;;;;;;5.38;4.85;;;9.20;98.20;;;;;;5033587;28;20052;-67
2021/06/04 01:45:45;;;;;;;5.97;5.35;;;9.10;98.10;;;;;;5035084;28;20025;-66
2021/06/04 01:48:14;;;;;;;7.18;4.65;;;9.10;98.20;;;;;;5035099;28;20434;-66
2021/06/04 01:50:48;;;;;;;5.45;4.60;;;9.10;99.10;;;;;;5033664;28;20556;-67
2021/06/04 01:53:22;;;;;;;12.73;5.25;;;9.10;97.80;;;;;;5033584;28;20025;-67
2021/06/04 01:55:53;;;;;;;8.07;4.15;;;9.10;97.40;;;;;;5034970;28;20022;-67
2021/06/04 01:58:26;;;;;;;8.77;6.05;;;9.10;96.20;;;;;;5034993;28;20029;-67
2021/06/04 02:01:01;;;;;;;8.88;5.50;;;9.00;96.80;;;;;;5034717;28;20490;-67
2021/06/04 02:03:27;;;;;;;7.05;4.95;;;9.00;96.70;;;;;;5034898;28;20533;-67
2021/06/04 02:05:55;;;;;;;10.05;4.65;;;8.90;97.60;;;;;;5034542;28;20025;-67
2021/06/04 02:08:44;;;;;;;12.07;5.20;;;8.90;97.80;;;;;;5034421;28;20030;-68
2021/06/04 02:11:12;;;;;;;10.75;5.35;;;8.90;99.00;;;;;;5034573;28;20037;-66
2021/06/04 02:13:41;;;;;;;11.43;5.43;;;8.90;99.20;;;;;;5034515;28;20022;-66
2021/06/04 02:16:45;;;;;;;9.90;5.47;;;8.80;99.30;;;;;;5034550;28;20075;-66
2021/06/04 02:19:22;;;;;;;;;;;8.80;99.20;;;;;;5033642;28;20392;-66
2021/06/04 02:21:56;;;;;;;13.88;6.35;;;8.80;99.00;;;;;;5033075;28;20342;-67
2021/06/04 02:24:28;;;;;;;8.75;5.18;;;8.80;99.20;;;;;;5034444;28;20028;-67
2021/06/04 02:27:07;;;;;;;11.07;5.32;;;8.70;98.30;;;;;;5033689;28;20474;-67
2021/06/04 02:29:38;;;;;;;9.63;4.95;;;8.70;98.30;;;;;;5034341;28;20033;-67
2021/06/04 02:32:25;;;;;;;11.32;4.90;;;8.70;99.20;;;;;;5034180;28;20133;-67
2021/06/04 02:35:00;;;;;;;10.20;4.63;;;8.70;98.90;;;;;;5033988;28;20040;-66
2021/06/04 02:37:54;;;;;;;6.75;5.20;;;8.70;98.50;;;;;;5034114;28;20076;-66
2021/06/04 02:40:26;;;;;;;7.47;5.72;;;8.60;99.90;;;;;;5022697;28;20045;-66
2021/06/04 02:43:06;;;;;;;6.82;5.35;;;8.50;99.90;;;;;;5033670;28;20100;-66
2021/06/04 02:45:39;;;;;;;6.07;4.90;;;8.50;99.90;;;;;;5034048;28;20049;-66
2021/06/04 02:48:11;;;;;;;5.47;4.93;;;8.50;99.90;;;;;;5033991;28;20092;-66
2021/06/04 02:50:50;;;;;;;7.15;4.97;;;8.50;99.90;;;;;;5032917;28;20041;-66
2021/06/04 02:53:32;;;;;;;9.07;5.63;;;8.50;99.90;;;;;;5033942;28;20561;-66
2021/06/04 02:56:23;;;;;;;8.82;5.15;;;8.50;99.90;;;;;;5033788;28;20018;-66
2021/06/04 02:59:02;;;;;;;6.70;5.30;;;8.50;99.90;;;;;;5033749;28;20029;-66
2021/06/04 03:01:31;;;;;;;5.45;4.70;;;8.50;99.90;;;;;;5034299;28;20018;-66
2021/06/04 03:03:59;;;;;;;20.17;6.20;;;8.50;99.90;;;;;;5031955;28;20044;-66
2021/06/04 03:06:30;;;;;;;9.32;5.57;;;8.50;99.90;;;;;;5032365;28;20026;-66
2021/06/04 03:09:00;;;;;;;9.15;6.57;;;8.60;99.90;;;;;;5033294;28;20475;-66
2021/06/04 03:11:29;;;;;;;9.20;5.38;;;8.60;99.90;;;;;;5033362;28;20515;-66
2021/06/04 03:13:55;;;;;;;7.10;5.20;;;8.70;99.90;;;;;;5032126;28;20055;-66
2021/06/04 03:16:23;;;;;;;6.40;5.43;;;8.70;99.90;;;;;;5033550;28;20045;-67
2021/06/04 03:18:57;;;;;;;5.57;4.68;;;8.60;99.90;;;;;;5033052;28;20025;-66
2021/06/04 03:21:51;;;;;;;7.88;5.25;;;8.70;99.90;;;;;;5033390;28;20083;-66
2021/06/04 03:24:21;;;;;;;12.50;5.22;;;8.90;99.90;;;;;;5033449;28;20049;-66
2021/06/04 03:26:46;;;;;;;18.02;5.50;;;9.20;99.10;;;;;;5033170;28;20018;-66
2021/06/04 03:29:15;;;;;;;8.85;4.78;;;9.30;97.20;;;;;;5033181;28;20100;-66
2021/06/04 03:31:48;;;;;;;5.70;4.47;;;9.60;95.80;;;;;;5033114;28;20398;-66
2021/06/04 03:34:14;;;;;;;9.38;5.25;;;9.90;94.10;;;;;;5032955;28;20025;-66
2021/06/04 03:36:44;;;;;;;7.78;4.35;;;10.10;90.80;;;;;;5031834;28;20018;-67
2021/06/04 03:39:17;;;;;;;5.88;4.50;;;10.50;88.70;;;;;;5032782;28;20072;-66
2021/06/04 03:41:45;;;;;;;6.53;4.93;;;10.70;88.50;;;;;;5033111;28;20025;-66
2021/06/04 03:44:14;;;;;;;6.65;4.18;;;10.90;84.30;;;;;;5033466;28;20037;-66
2021/06/04 03:46:40;;;;;;;7.40;4.88;;;11.20;82.90;;;;;;5033004;28;20025;-66
2021/06/04 03:49:08;;;;;;;9.02;4.70;;;11.30;81.60;;;;;;5032545;28;20030;-67
2021/06/04 03:51:38;;;;;;;6.38;4.97;;;11.60;81.60;;;;;;5032801;28;20072;-67
2021/06/04 03:54:08;;;;;;;6.57;4.20;;;11.90;79.70;;;;;;5032855;28;20021;-67
2021/06/04 03:56:35;;;;;;;7.07;4.18;;;12.20;78.90;;;;;;5031440;28;20021;-66
2021/06/04 03:59:02;;;;;;;7.35;4.88;;;12.30;77.70;;;;;;5031517;28;20025;-67
2021/06/04 04:01:36;;;;;;;6.32;4.38;;;12.60;75.60;;;;;;5032760;28;20104;-66
2021/06/04 04:04:03;;;;;;;6.00;4.35;;;12.70;74.70;;;;;;5032613;28;20026;-67
2021/06/04 04:06:28;;;;;;;8.02;4.40;;;12.90;73.60;;;;;;5032726;28;20540;-67
2021/06/04 04:08:54;;;;;;;5.47;4.35;;;12.90;73.90;;;;;;5032409;28;20030;-66
2021/06/04 04:11:20;;;;;;;8.50;4.53;;;13.00;74.20;;;;;;5032759;28;20399;-68
2021/06/04 04:13:45;;;;;;;4.72;3.90;;;13.20;75.00;;;;;;5032632;28;20026;-67
2021/06/04 04:16:11;;;;;;;6.07;4.43;;;13.40;75.40;;;;;;5032664;28;20037;-67
2021/06/04 04:18:39;;;;;;;7.47;3.92;;;13.60;74.90;;;;;;5032372;28;20108;-67
2021/06/04 04:21:06;;;;;;;26.55;6.55;;;13.80;74.10;;;;;;5032647;28;20021;-66
2021/06/04 04:23:35;;;;;;;7.32;5.28;;;14.00;74.00;;;;;;5032586;28;20025;-66
2021/06/04 04:26:02;;;;;;;7.75;4.97;;;14.20;73.60;;;;;;5032582;28;20029;-67
2021/06/04 04:28:32;;;;;;;4.57;4.05;;;14.40;74.50;;;;;;5032656;28;20030;-67
2021/06/04 04:30:59;;;;;;;5.15;3.72;;;14.60;74.90;;;;;;5032190;28;20060;-67
2021/06/04 04:33:26;;;;;;;4.78;4.00;;;14.70;73.50;;;;;;5032347;28;20026;-66
2021/06/04 04:35:52;;;;;;;9.02;4.30;;;14.80;75.30;;;;;;5032462;28;20036;-67
2021/06/04 04:38:20;;;;;;;10.05;4.60;;;14.80;76.50;;;;;;5032243;28;20025;-66
2021/06/04 04:40:50;;;;;;;8.30;4.18;;;14.90;75.10;;;;;;5032438;28;20064;-67
2021/06/04 04:43:17;;;;;;;5.40;4.00;;;15.10;75.90;;;;;;5032717;28;20141;-66
2021/06/04 04:45:43;;;;;;;6.25;5.20;;;15.20;76.20;;;;;;5032399;28;20035;-67
2021/06/04 04:48:10;;;;;;;6.15;4.22;;;15.40;75.60;;;;;;5032303;28;20108;-66
2021/06/04 04:50:37;;;;;;;6.50;4.63;;;15.50;75.40;;;;;;5032069;28;20046;-67
2021/06/04 04:53:03;;;;;;;9.48;4.63;;;15.60;73.40;;;;;;5032296;28;20109;-67
2021/06/04 04:55:34;;;;;;;5.93;4.00;;;15.70;74.30;;;;;;5032185;28;20032;-67
2021/06/04 04:58:00;;;;;;;7.32;4.25;;;15.80;73.60;;;;;;5032274;28;20053;-66
2021/06/04 05:00:28;;;;;;;9.15;4.75;;;16.00;72.60;;;;;;5031948;28;20411;-67
2021/06/04 05:02:54;;;;;;;6.07;4.55;;;16.00;73.10;;;;;;5031845;28;20476;-67
2021/06/04 05:05:23;;;;;;;8.23;4.07;;;16.20;73.80;;;;;;5032147;28;20036;-67
2021/06/04 05:07:49;;;;;;;5.90;4.45;;;16.30;72.80;;;;;;5031938;28;20026;-66
2021/06/04 05:10:15;;;;;;;12.10;4.32;;;16.40;71.50;;;;;;5031547;28;20037;-67
2021/06/04 05:12:41;;;;;;;8.10;4.32;;;16.60;66.40;;;;;;5032077;28;20033;-68
2021/06/04 05:15:12;;;;;;;7.93;3.90;;;16.70;64.10;;;;;;5035094;28;20036;-68
2021/06/04 05:17:38;;;;;;;5.55;3.90;;;16.90;64.00;;;;;;5014606;28;20148;-67
2021/06/04 05:20:04;;;;;;;4.38;3.83;;;17.00;60.60;;;;;;5015845;28;20603;-68
2021/06/04 05:22:30;;;;;;;5.10;3.22;;;17.10;59.90;;;;;;5014455;28;20061;-67
2021/06/04 05:24:56;;;;;;;7.13;3.95;;;17.20;58.30;;;;;;5014484;28;20061;-68
2021/06/04 05:27:21;;;;;;;5.32;3.30;;;17.20;56.80;;;;;;5014433;28;20045;-67
2021/06/04 05:29:47;;;;;;;4.22;3.67;;;17.30;56.60;;;;;;5015638;28;20018;-68
2021/06/04 05:32:13;;;;;;;6.50;3.55;;;17.30;56.60;;;;;;5025003;28;20037;-69
2021/06/04 05:34:39;;;;;;;7.43;3.67;;;17.40;58.20;;;;;;5034021;28;20399;-67
2021/06/04 05:37:05;;;;;;;8.63;4.70;;;17.40;58.30;;;;;;5035156;28;20021;-68
2021/06/04 05:39:31;;;;;;;3.92;3.60;;;17.40;57.40;;;;;;5035062;28;20068;-67
2021/06/04 05:42:01;;;;;;;6.05;3.22;;;17.50;57.60;;;;;;5035224;28;20025;-67
2021/06/04 05:44:29;;;;;;;5.30;4.13;;;17.60;57.00;;;;;;5035576;28;20441;-67
2021/06/04 05:46:58;;;;;;;4.32;3.92;;;17.60;55.50;;;;;;5035127;28;20049;-67
2021/06/04 05:49:25;;;;;;;5.25;3.92;;;17.60;55.50;;;;;;5034931;28;20029;-67
2021/06/04 05:51:51;;;;;;;4.93;3.95;;;17.90;56.60;;;;;;5034747;28;20435;-68
2021/06/04 05:54:17;;;;;;;4.25;3.85;;;18.00;55.80;;;;;;5034957;28;20026;-67
2021/06/04 05:56:44;;;;;;;5.78;3.28;;;18.20;55.40;;;;;;5035008;28;20155;-67
2021/06/04 05:59:12;;;;;;;4.82;3.50;;;18.30;53.00;;;;;;5034811;28;20034;-68
2021/06/04 06:01:38;;;;;;;5.15;3.58;;;18.40;52.30;;;;;;5034793;28;20029;-68
2021/06/04 06:04:04;;;;;;;6.03;3.22;;;18.50;52.70;;;;;;5034452;28;20030;-67
2021/06/04 06:06:30;;;;;;;5.88;3.50;;;18.50;52.60;;;;;;5034539;28;20467;-68
2021/06/04 06:08:56;;;;;;;5.20;3.65;;;18.70;52.90;;;;;;5034514;28;20029;-67
2021/06/04 06:11:25;;;;;;;6.50;3.75;;;18.80;53.60;;;;;;5034654;28;20048;-69
2021/06/04 06:14:00;;;;;;;8.57;4.35;;;19.00;52.70;;;;;;5034528;28;20524;-68
2021/06/04 06:16:28;;;;;;;5.10;3.58;;;19.10;51.60;;;;;;5034630;28;20018;-68
2021/06/04 06:18:54;;;;;;;5.25;3.20;;;19.30;52.90;;;;;;5034459;28;20101;-68
2021/06/04 06:21:21;;;;;;;5.22;3.22;;;19.40;53.50;;;;;;5034573;28;20049;-68
2021/06/04 06:23:47;;;;;;;3.75;3.40;;;19.50;52.20;;;;;;5034271;28;20029;-68
2021/06/04 06:26:19;;;;;;;6.65;3.45;;;19.60;52.30;;;;;;5033220;28;20384;-68
2021/06/04 06:28:45;;;;;;;6.15;3.03;;;19.70;49.90;;;;;;5034250;28;20025;-68
2021/06/04 06:31:23;;;;;;;3.08;2.78;;;19.80;50.20;;;;;;5033714;28;20049;-68
2021/06/04 06:33:50;;;;;;;3.70;3.17;;;19.90;48.80;;;;;;5034260;28;20060;-68
2021/06/04 06:36:26;;;;;;;5.60;3.15;;;20.10;49.50;;;;;;5034197;28;20045;-69
2021/06/04 06:38:52;;;;;;;4.22;2.80;;;20.30;49.60;;;;;;5014348;28;20041;-68
2021/06/04 06:41:18;;;;;;;3.22;2.70;;;20.30;47.80;;;;;;5025647;28;20037;-68
2021/06/04 06:43:47;;;;;;;4.43;3.35;;;20.30;47.60;;;;;;5033623;28;20037;-68
2021/06/04 06:46:15;;;;;;;3.15;2.95;;;20.30;47.00;;;;;;5031136;28;20024;-68
2021/06/04 06:48:41;;;;;;;4.20;3.03;;;20.40;48.30;;;;;;5031379;28;20040;-68
2021/06/04 06:51:09;;;;;;;3.17;2.80;;;20.60;48.40;;;;;;5032318;28;20037;-68
2021/06/04 06:53:36;;;;;;;3.10;2.78;;;20.70;47.20;;;;;;5032857;28;20022;-68
2021/06/04 06:56:04;;;;;;;3.75;2.60;;;20.60;45.20;;;;;;5033204;28;20027;-68
2021/06/04 06:58:29;;;;;;;2.92;2.70;;;20.70;46.30;;;;;;5033589;28;20087;-68
2021/06/04 07:00:56;;;;;;;4.88;3.33;;;20.80;47.10;;;;;;5032526;28;20471;-68
2021/06/04 07:03:27;;;;;;;3.80;2.72;;;20.80;46.50;;;;;;5031117;28;20033;-68
2021/06/04 07:05:54;;;;;;;3.30;3.00;;;20.90;46.50;;;;;;5049618;28;20391;-68
2021/06/04 07:08:20;;;;;;;4.07;2.45;;;20.90;46.70;;;;;;5030107;28;20048;-68
2021/06/04 07:10:46;;;;;;;6.10;3.20;;;21.00;44.80;;;;;;5031372;28;20072;-68
2021/06/04 07:13:14;;;;;;;3.78;2.80;;;21.00;44.20;;;;;;5029950;28;20464;-68
2021/06/04 07:15:40;;;;;;;4.03;2.55;;;21.10;44.20;;;;;;5030648;28;20100;-70
2021/06/04 07:18:07;;;;;;;4.32;3.00;;;21.20;44.10;;;;;;5032751;28;20503;-68
2021/06/04 07:20:36;;;;;;;5.65;2.38;;;21.20;43.80;;;;;;5032863;28;20036;-69
2021/06/04 07:23:05;;;;;;;6.82;3.03;;;21.30;42.90;;;;;;5032704;28;20427;-68
2021/06/04 07:25:33;;;;;;;4.63;3.10;;;21.40;42.10;;;;;;5032014;28;20032;-67
2021/06/04 07:27:59;;;;;;;3.67;3.10;;;21.50;43.80;;;;;;5032464;28;20029;-67
2021/06/04 07:30:31;;;;;;;4.07;2.88;;;21.60;42.70;;;;;;5033132;28;20096;-67
2021/06/04 07:33:00;;;;;;;;;;;21.40;41.20;;;;;;5033536;28;20483;-67
2021/06/04 07:35:26;;;;;;;3.17;2.60;;;21.70;41.70;;;;;;5029095;28;19912;-67
2021/06/04 07:37:52;;;;;;;3.40;2.47;;;21.80;40.70;;;;;;5030662;28;20074;-67
2021/06/04 07:40:21;;;;;;;3.17;2.38;;;21.60;39.50;;;;;;5031959;28;20026;-67
2021/06/04 07:42:49;;;;;;;3.58;3.10;;;21.60;38.20;;;;;;5027710;28;20456;-67
2021/06/04 07:45:17;;;;;;;5.68;3.20;;;21.60;39.80;;;;;;5023835;28;20419;-66
2021/06/04 07:47:42;;;;;;;4.35;2.78;;;21.70;41.20;;;;;;5026028;28;20037;-67
2021/06/04 07:50:10;;;;;;;3.30;2.65;;;22.00;41.50;;;;;;5029581;28;20079;-68
2021/06/04 07:52:37;;;;;;;6.05;2.58;;;22.20;40.60;;;;;;5027709;28;20033;-66
2021/06/04 07:55:05;;;;;;;4.72;2.65;;;22.30;41.00;;;;;;5029150;28;20021;-67
2021/06/04 07:57:30;;;;;;;4.55;3.17;;;22.10;41.00;;;;;;5029178;28;20108;-67
2021/06/04 07:59:56;;;;;;;5.63;3.05;;;22.10;41.00;;;;;;5030449;28;20100;-67
2021/06/04 08:02:22;;;;;;;3.80;3.03;;;21.90;40.20;;;;;;5031515;28;20041;-67
2021/06/04 08:04:47;;;;;;;5.40;2.80;;;21.90;40.20;;;;;;5031810;28;20033;-67
2021/06/04 08:07:14;;;;;;;3.50;2.90;;;21.80;39.80;;;;;;5031238;28;20116;-68
2021/06/04 08:09:42;;;;;;;4.20;2.70;;;21.90;39.70;;;;;;5031042;28;20029;-67
2021/06/04 08:12:11;;;;;;;3.28;2.97;;;22.00;40.40;;;;;;5030435;28;20041;-67
2021/06/04 08:14:37;;;;;;;3.90;2.72;;;22.10;41.00;;;;;;5031907;28;20044;-67
2021/06/04 08:17:03;;;;;;;5.38;2.85;;;22.20;38.90;;;;;;5031943;28;20034;-67
2021/06/04 08:19:33;;;;;;;3.42;3.13;;;22.20;39.00;;;;;;5030580;28;20029;-67
2021/06/04 08:22:00;;;;;;;3.22;2.70;;;22.20;39.00;;;;;;5032004;28;20116;-67
2021/06/04 08:24:31;;;;;;;4.28;3.10;;;22.60;39.00;;;;;;5031795;28;20399;-67
2021/06/04 08:26:57;;;;;;;3.63;3.03;;;22.60;38.20;;;;;;5022491;28;20020;-67
2021/06/04 08:29:25;;;;;;;3.83;2.88;;;22.60;38.30;;;;;;5030346;28;20456;-67
2021/06/04 08:31:51;;;;;;;3.72;2.88;;;22.70;39.70;;;;;;5030570;28;20033;-67
2021/06/04 08:34:17;;;;;;;4.07;2.70;;;22.70;40.20;;;;;;5030061;28;20021;-67
2021/06/04 08:36:44;;;;;;;3.78;2.80;;;22.70;39.90;;;;;;5029674;28;20059;-68
2021/06/04 08:39:16;;;;;;;3.65;2.65;;;22.50;39.80;;;;;;5029648;28;20060;-67
2021/06/04 08:42:12;;;;;;;3.40;2.78;;;22.50;40.20;;;;;;5028425;28;20395;-67
2021/06/04 08:45:22;;;;;;;2.75;2.55;;;22.70;39.40;;;;;;5031062;28;20025;-67
2021/06/04 08:47:57;;;;;;;3.03;2.72;;;22.90;38.50;;;;;;5031738;28;20053;-68
2021/06/04 08:50:37;;;;;;;6.75;3.10;;;22.90;39.00;;;;;;5035914;28;20033;-67
2021/06/04 08:53:12;;;;;;;3.15;2.65;;;23.00;38.40;;;;;;5035057;28;20017;-67
2021/06/04 08:56:01;;;;;;;3.42;3.17;;;22.80;37.60;;;;;;5034757;28;20030;-67
2021/06/04 08:58:58;;;;;;;3.53;2.72;;;22.90;38.20;;;;;;5034037;28;20108;-67
2021/06/04 09:01:48;;;;;;;3.45;2.85;;;23.10;37.70;;;;;;5034097;28;20017;-67
2021/06/04 09:04:19;;;;;;;3.03;2.63;;;23.00;37.20;;;;;;5034287;28;20056;-67
2021/06/04 09:07:07;;;;;;;4.43;2.92;;;23.10;36.50;;;;;;5035763;28;20026;-67
2021/06/04 09:10:03;;;;;;;3.88;3.50;;;23.30;37.60;;;;;;5029781;28;20431;-67
2021/06/04 09:13:14;;;;;;;3.72;3.13;;;23.30;35.80;;;;;;5035264;28;20045;-68
2021/06/04 09:15:42;;;;;;;4.97;3.15;;;23.20;36.90;;;;;;5029174;28;20100;-68
2021/06/04 09:18:12;;;;;;;4.28;2.70;;;23.30;36.80;;;;;;5034340;28;20018;-68
2021/06/04 09:20:57;;;;;;;5.93;2.88;;;23.60;37.50;;;;;;5033117;28;20026;-68
2021/06/04 09:23:28;;;;;;;4.82;2.67;;;23.50;37.00;;;;;;5033388;28;20021;-68
2021/06/04 09:25:55;;;;;;;5.43;2.42;;;23.50;36.80;;;;;;5034520;28;20025;-69
2021/06/04 09:28:23;;;;;;;3.25;2.88;;;23.30;36.80;;;;;;5035425;28;20034;-69
2021/06/04 09:30:55;;;;;;;5.30;3.25;;;23.20;36.70;;;;;;5034777;28;20046;-69
2021/06/04 09:33:22;;;;;;;;;;;23.30;36.20;;;;;;5035424;28;20488;-69
2021/06/04 09:35:56;;;;;;;7.95;3.78;;;23.10;36.30;;;;;;5034382;28;19909;-68
2021/06/04 09:38:32;;;;;;;2.90;2.45;;;23.50;37.00;;;;;;5029166;28;20033;-68
2021/06/04 09:41:26;;;;;;;3.15;2.95;;;23.30;38.00;;;;;;5031023;28;20399;-68
2021/06/04 09:44:06;;;;;;;2.90;2.38;;;23.30;38.80;;;;;;5032884;28;20025;-68
2021/06/04 09:46:36;;;;;;;7.10;2.92;;;23.40;38.50;;;;;;5032740;28;20029;-68
2021/06/04 09:49:03;;;;;;;4.22;3.03;;;23.50;37.40;;;;;;5033200;28;20018;-69
2021/06/04 09:51:35;;;;;;;6.15;3.20;;;23.70;37.00;;;;;;5033807;28;20499;-68
2021/06/04 09:54:28;;;;;;;3.47;3.05;;;23.50;36.90;;;;;;5033356;28;20123;-68
2021/06/04 09:57:15;;;;;;;7.75;2.65;;;23.40;36.40;;;;;;5030740;28;20159;-68
2021/06/04 09:59:40;;;;;;;3.67;3.03;;;23.70;35.90;;;;;;5031913;28;20113;-68
2021/06/04 10:02:39;;;;;;;3.85;2.72;;;23.60;36.00;;;;;;5032375;28;20025;-69
2021/06/04 10:05:28;;;;;;;3.35;3.05;;;23.40;36.80;;;;;;5007018;28;20037;-68
2021/06/04 10:08:23;;;;;;;6.32;2.80;;;23.30;36.30;;;;;;5032205;28;20034;-68
2021/06/04 10:11:05;;;;;;;3.60;2.45;;;23.20;36.20;;;;;;5033215;28;20053;-68
2021/06/04 10:13:55;;;;;;;7.65;2.88;;;23.40;36.80;;;;;;5033503;28;20037;-68
2021/06/04 10:16:28;;;;;;;3.58;3.28;;;23.40;38.10;;;;;;5030836;28;20431;-68
2021/06/04 10:18:54;;;;;;;4.07;3.00;;;23.60;38.40;;;;;;5031064;28;20029;-69
2021/06/04 10:21:31;;;;;;;3.17;2.88;;;23.50;37.40;;;;;;5012451;28;20022;-70
2021/06/04 10:24:01;;;;;;;3.30;2.60;;;23.50;37.30;;;;;;5012101;28;20022;-69
2021/06/04 10:26:36;;;;;;;5.60;3.15;;;23.60;37.20;;;;;;5012420;28;20045;-68
2021/06/04 10:29:07;;;;;;;6.28;2.97;;;23.70;37.10;;;;;;5011458;28;20152;-68
2021/06/04 10:31:51;;;;;;;4.10;2.92;;;23.70;37.60;;;;;;5012415;28;20030;-68
2021/06/04 10:34:44;;;;;;;4.03;2.50;;;23.90;37.40;;;;;;5031089;28;20514;-68
2021/06/04 10:37:35;;;;;;;4.57;2.78;;;23.90;37.50;;;;;;5032741;28;20068;-68
2021/06/04 10:40:20;;;;;;;2.88;2.60;;;23.90;38.10;;;;;;5031013;28;20223;-68
2021/06/04 10:43:00;;;;;;;3.33;3.03;;;24.00;37.00;;;;;;5031072;28;20487;-69
2021/06/04 10:45:32;;;;;;;3.13;2.70;;;23.70;36.30;;;;;;5032464;28;20041;-68
2021/06/04 10:48:27;;;;;;;5.35;2.90;;;23.60;36.60;;;;;;5031398;28;20029;-68
2021/06/04 10:51:31;;;;;;;5.30;3.08;;;23.70;35.80;;;;;;5031073;28;20052;-68
2021/06/04 10:54:00;;;;;;;3.20;2.95;;;23.80;36.60;;;;;;5028907;28;20383;-68
2021/06/04 10:56:31;;;;;;;6.57;2.80;;;23.70;36.70;;;;;;5032157;28;20438;-68
2021/06/04 10:59:20;;;;;;;5.03;2.85;;;23.90;37.10;;;;;;5031323;28;20080;-68
2021/06/04 11:01:54;;;;;;;3.40;3.10;;;23.80;36.50;;;;;;5031033;28;20033;-68
2021/06/04 11:04:32;;;;;;;3.22;2.63;;;23.80;36.20;;;;;;5031714;28;20030;-68
2021/06/04 11:07:00;;;;;;;10.30;3.92;;;23.90;35.80;;;;;;5026086;28;20488;-68
2021/06/04 11:09:53;;;;;;;4.78;3.10;;;24.10;36.90;;;;;;5030487;28;20057;-69
2021/06/04 11:12:58;;;;;;;4.40;3.75;;;24.10;36.70;;;;;;5031231;28;20079;-68
2021/06/04 11:15:27;;;;;;;5.00;3.25;;;24.00;37.00;;;;;;5022786;28;20483;-68
2021/06/04 11:18:13;;;;;;;2.78;2.58;;;24.00;36.10;;;;;;5031128;28;20029;-68
2021/06/04 11:20:52;;;;;;;3.67;3.00;;;24.10;36.60;;;;;;5031338;28;20033;-68
2021/06/04 11:23:38;;;;;;;3.17;2.88;;;24.20;36.60;;;;;;5031617;28;20036;-68
2021/06/04 11:26:24;;;;;;;3.97;2.97;;;24.00;37.00;;;;;;5031029;28;20100;-68
2021/06/04 11:29:03;;;;;;;3.00;2.80;;;24.10;38.00;;;;;;5030876;28;20072;-68
2021/06/04 11:31:28;;;;;;;3.10;2.83;;;23.90;37.40;;;;;;5031014;28;20152;-68
2021/06/04 11:33:58;;;;;;;9.38;2.88;;;24.10;36.90;;;;;;5030505;28;20064;-68
2021/06/04 11:36:34;;;;;;;3.53;3.22;;;24.30;38.30;;;;;;5030150;28;20426;-68
2021/06/04 11:39:11;;;;;;;4.95;3.03;;;24.30;37.70;;;;;;5030562;28;20025;-69
2021/06/04 11:41:42;;;;;;;3.53;3.10;;;24.40;37.60;;;;;;5031560;28;20017;-68
2021/06/04 11:44:26;;;;;;;7.15;3.58;;;24.30;37.00;;;;;;5030525;28;20033;-69
2021/06/04 11:47:17;;;;;;;5.13;2.80;;;24.00;36.80;;;;;;5030410;28;20033;-68
2021/06/04 11:49:55;;;;;;;3.65;2.88;;;23.60;37.40;;;;;;5023927;28;20037;-68
2021/06/04 11:52:45;;;;;;;5.68;3.25;;;23.30;37.60;;;;;;5031195;28;20376;-68
2021/06/04 11:55:22;;;;;;;3.13;2.65;;;23.50;38.10;;;;;;5029636;28;20530;-69
2021/06/04 11:57:51;;;;;;;3.97;3.63;;;23.60;38.50;;;;;;5029137;28;20029;-68
2021/06/04 12:00:26;;;;;;;6.70;3.47;;;23.80;38.10;;;;;;5029273;28;20046;-69
2021/06/04 12:02:53;;;;;;;3.88;3.42;;;23.90;37.40;;;;;;5027575;28;20037;-68
2021/06/04 12:05:19;;;;;;;4.20;3.40;;;24.20;36.80;;;;;;5025171;28;20049;-68
2021/06/04 12:08:06;;;;;;;3.83;2.90;;;24.30;36.50;;;;;;5028206;28;20017;-69
2021/06/04 12:10:53;;;;;;;5.40;3.10;;;24.30;37.80;;;;;;5029434;28;20048;-68
2021/06/04 12:13:51;;;;;;;3.90;3.00;;;24.50;38.40;;;;;;5029914;28;20033;-68
2021/06/04 12:16:33;;;;;;;5.93;3.72;;;24.50;38.10;;;;;;5032420;28;20458;-69
2021/06/04 12:19:22;;;;;;;3.88;3.53;;;24.50;37.90;;;;;;5031501;28;20013;-69
2021/06/04 12:21:51;;;;;;;5.55;3.33;;;24.50;39.40;;;;;;5027521;28;20032;-69
2021/06/04 12:24:19;;;;;;;4.28;3.15;;;24.50;37.90;;;;;;5036455;28;20396;-70
2021/06/04 12:26:52;;;;;;;5.80;3.15;;;24.50;36.60;;;;;;5036310;28;20021;-70
2021/06/04 12:29:20;;;;;;;;;;;24.50;35.70;;;;;;5035759;28;20103;-70
2021/06/04 12:32:09;;;;;;;5.85;3.25;;;24.50;36.20;;;;;;5036287;28;20008;-69
2021/06/04 12:34:38;;;;;;;5.45;2.63;;;24.40;36.00;;;;;;5036340;28;20029;-69
2021/06/04 12:37:11;;;;;;;2.83;2.63;;;24.30;35.80;;;;;;5035689;28;20025;-69
2021/06/04 12:39:39;;;;;;;3.35;3.05;;;24.30;36.90;;;;;;5036345;28;20032;-69
2021/06/04 12:42:39;;;;;;;3.53;3.00;;;24.30;37.60;;;;;;5036132;28;20083;-69
2021/06/04 12:45:21;;;;;;;5.40;3.22;;;24.40;36.90;;;;;;5018292;28;20491;-70
2021/06/04 12:48:02;;;;;;;3.10;2.80;;;24.50;36.50;;;;;;5034296;28;20055;-70
2021/06/04 12:50:58;;;;;;;3.10;2.80;;;24.50;35.50;;;;;;5034674;28;20029;-70
2021/06/04 12:53:26;;;;;;;3.75;2.85;;;24.60;36.10;;;;;;5008603;28;20048;-71
2021/06/04 12:55:57;;;;;;;5.20;3.17;;;24.60;36.50;;;;;;5029614;28;20022;-70
2021/06/04 12:58:32;;;;;;;5.35;3.22;;;24.70;36.90;;;;;;5034760;28;20022;-70
2021/06/04 13:01:07;;;;;;;4.63;2.72;;;24.80;36.20;;;;;;5034489;28;20025;-70
2021/06/04 13:03:37;;;;;;;3.72;3.08;;;25.00;35.30;;;;;;5035106;28;20083;-70
2021/06/04 13:06:03;;;;;;;2.95;2.75;;;25.00;35.40;;;;;;5033162;28;20010;-70
2021/06/04 13:08:36;;;;;;;3.30;3.00;;;25.10;36.40;;;;;;5034803;28;20076;-69
2021/06/04 13:11:03;;;;;;;;;;;25.10;35.20;;;;;;5033710;28;20486;-70
2021/06/04 13:13:33;;;;;;;6.38;2.90;;;25.10;35.10;;;;;;5033977;28;19915;-70
2021/06/04 13:16:32;;;;;;;3.45;3.15;;;25.10;35.30;;;;;;5035907;28;20479;-70
2021/06/04 13:19:10;;;;;;;2.83;2.63;;;25.30;35.20;;;;;;5012625;28;20116;-69
2021/06/04 13:21:39;;;;;;;2.83;2.60;;;25.30;35.30;;;;;;5032809;28;20023;-69